Аэропорт: Бесовец. Петрозаводск

ICAO: ULPB

METAR:
2024-04-22 22:00:00
ULPB 222200Z AUTO 10003MPS 060V130 9999 // ///022/// 06/04 Q1008 RMK QFE752/1003
TAF:
Информация по данной станции не доступна